createdAt,value
2022-08-20T00:01:49.408Z,1.00
2022-08-20T00:04:17.955Z,1.00
2022-08-20T00:06:46.387Z,1.00
2022-08-20T00:09:14.868Z,1.00
2022-08-20T00:11:45.488Z,1.00
2022-08-20T00:14:13.680Z,1.00
2022-08-20T00:16:43.273Z,1.00
2022-08-20T00:19:12.668Z,1.00
2022-08-20T00:21:40.651Z,1.00
2022-08-20T00:24:10.278Z,1.00
2022-08-20T00:26:38.394Z,1.00
2022-08-20T00:29:20.603Z,1.00
2022-08-20T00:31:52.460Z,1.00
2022-08-20T00:34:20.951Z,1.00
2022-08-20T00:36:48.996Z,1.00
2022-08-20T00:39:17.027Z,1.00
2022-08-20T00:41:45.857Z,1.00
2022-08-20T00:44:16.888Z,1.00
2022-08-20T00:46:47.164Z,1.00
2022-08-20T00:49:22.040Z,1.00
2022-08-20T00:51:54.717Z,1.00
2022-08-20T00:54:27.870Z,1.00
2022-08-20T00:56:59.325Z,1.00
2022-08-20T00:59:30.766Z,1.00
2022-08-20T01:02:01.448Z,1.00
2022-08-20T01:04:33.624Z,1.00
2022-08-20T01:07:05.282Z,1.00
2022-08-20T01:09:58.423Z,1.00
2022-08-20T01:12:23.608Z,1.00
2022-08-20T01:14:52.804Z,1.00
2022-08-20T01:17:25.253Z,1.00
2022-08-20T01:19:59.006Z,1.00
2022-08-20T01:22:50.744Z,1.00
2022-08-20T01:25:26.372Z,1.00
2022-08-20T01:27:57.319Z,1.00
2022-08-20T01:30:29.969Z,1.00
2022-08-20T01:32:58.713Z,1.00
2022-08-20T01:35:27.511Z,1.00
2022-08-20T01:37:56.203Z,1.00
2022-08-20T01:40:39.721Z,1.00
2022-08-20T01:43:09.721Z,1.00
2022-08-20T01:45:40.197Z,1.00
2022-08-20T01:48:09.589Z,1.00
2022-08-20T01:50:40.071Z,1.00
2022-08-20T01:53:16.432Z,1.00
2022-08-20T01:55:44.838Z,1.00
2022-08-20T01:58:14.757Z,1.00
2022-08-20T02:00:43.096Z,1.00
2022-08-20T02:03:11.224Z,1.00
2022-08-20T02:05:39.285Z,1.00
2022-08-20T02:08:07.454Z,1.00
2022-08-20T02:10:36.527Z,1.00
2022-08-20T02:13:07.601Z,1.00
2022-08-20T02:15:39.815Z,1.00
2022-08-20T02:18:13.117Z,1.00
2022-08-20T02:20:43.091Z,1.00
2022-08-20T02:23:12.994Z,1.00
2022-08-20T02:25:44.606Z,1.00
2022-08-20T02:28:15.538Z,1.00
2022-08-20T02:30:47.957Z,1.00
2022-08-20T02:33:18.606Z,1.00
2022-08-20T02:35:49.862Z,1.00
2022-08-20T02:38:18.208Z,1.00
2022-08-20T02:40:49.092Z,1.00
2022-08-20T02:43:18.312Z,1.00
2022-08-20T02:45:47.773Z,1.00
2022-08-20T02:48:22.920Z,1.00
2022-08-20T02:50:54.115Z,1.00
2022-08-20T02:53:22.592Z,1.00
2022-08-20T02:55:50.960Z,1.00
2022-08-20T02:58:20.070Z,1.70
2022-08-20T03:00:50.442Z,1.00
2022-08-20T03:03:22.549Z,1.00
2022-08-20T03:05:53.296Z,1.00
2022-08-20T03:08:22.595Z,1.00
2022-08-20T03:10:52.332Z,1.40
2022-08-20T03:13:22.742Z,1.00
2022-08-20T03:15:58.839Z,1.00
2022-08-20T03:18:30.883Z,6.40
2022-08-20T03:20:58.973Z,16.00
2022-08-20T03:23:27.337Z,23.50
2022-08-20T03:25:55.665Z,18.10
2022-08-20T03:28:23.993Z,16.60
2022-08-20T03:30:54.746Z,14.90
2022-08-20T03:33:24.132Z,15.60
2022-08-20T03:35:52.407Z,10.50
2022-08-20T03:38:32.542Z,11.30
2022-08-20T03:41:02.445Z,12.00
2022-08-20T03:43:31.316Z,14.10
2022-08-20T03:46:01.194Z,13.10
2022-08-20T03:48:29.654Z,11.20
2022-08-20T03:51:00.709Z,14.00
2022-08-20T03:53:31.713Z,14.40
2022-08-20T03:56:03.273Z,15.60
2022-08-20T03:58:35.024Z,19.50
2022-08-20T04:01:07.658Z,24.70
2022-08-20T04:03:41.201Z,20.30
2022-08-20T04:06:09.267Z,18.10
2022-08-20T04:08:38.862Z,17.00
2022-08-20T04:11:07.245Z,22.30
2022-08-20T04:13:37.994Z,16.40
2022-08-20T04:16:13.365Z,18.40
2022-08-20T04:18:43.418Z,17.70
2022-08-20T04:21:31.044Z,24.50
2022-08-20T04:24:01.466Z,21.30
2022-08-20T04:26:29.642Z,21.50
2022-08-20T04:28:57.720Z,24.10
2022-08-20T04:31:33.908Z,24.70
2022-08-20T04:34:02.789Z,28.10
2022-08-20T04:36:30.929Z,25.70
2022-08-20T04:38:59.030Z,24.40
2022-08-20T04:41:26.164Z,23.40
2022-08-20T04:43:55.854Z,25.40
2022-08-20T04:46:28.770Z,27.60
2022-08-20T04:48:57.857Z,26.20
2022-08-20T04:51:26.866Z,26.60
2022-08-20T04:53:57.269Z,29.00
2022-08-20T04:56:28.290Z,33.90
2022-08-20T04:58:59.676Z,31.40
2022-08-20T05:01:29.712Z,29.90
2022-08-20T05:04:00.176Z,31.80
2022-08-20T05:06:31.702Z,29.00
2022-08-20T05:09:01.129Z,25.30
2022-08-20T05:11:33.914Z,25.50
2022-08-20T05:14:05.933Z,27.20
2022-08-20T05:16:41.078Z,26.30
2022-08-20T05:19:11.406Z,26.80
2022-08-20T05:21:40.115Z,28.20
2022-08-20T05:24:10.090Z,26.30
2022-08-20T05:26:38.183Z,24.40
2022-08-20T05:29:06.872Z,20.00
2022-08-20T05:31:35.619Z,19.60
2022-08-20T05:34:09.571Z,16.30
2022-08-20T05:36:40.018Z,12.40
2022-08-20T05:39:08.819Z,8.20
2022-08-20T05:41:37.761Z,11.90
2022-08-20T05:44:09.833Z,9.70
2022-08-20T05:46:40.366Z,7.00
2022-08-20T05:49:10.098Z,4.40
2022-08-20T05:51:38.321Z,1.00
2022-08-20T05:54:07.275Z,1.00
2022-08-20T05:56:38.611Z,1.00
2022-08-20T05:59:08.165Z,1.00
2022-08-20T06:01:38.928Z,1.00
2022-08-20T06:04:25.018Z,1.00
2022-08-20T06:06:56.313Z,1.00
2022-08-20T06:09:31.017Z,1.00
2022-08-20T06:12:01.262Z,1.00
2022-08-20T06:14:29.519Z,1.00
2022-08-20T06:17:04.004Z,1.00
2022-08-20T06:19:33.339Z,1.00
2022-08-20T06:22:08.606Z,1.00
2022-08-20T06:24:47.802Z,1.00
2022-08-20T06:27:17.002Z,1.00
2022-08-20T06:29:45.345Z,1.00
2022-08-20T06:32:14.083Z,1.00
2022-08-20T06:34:50.164Z,1.00
2022-08-20T06:37:27.451Z,1.00
2022-08-20T06:40:04.227Z,1.00
2022-08-20T06:42:32.597Z,1.00
2022-08-20T06:45:03.217Z,1.00
2022-08-20T06:47:31.359Z,1.00
2022-08-20T06:49:59.497Z,1.00
2022-08-20T06:52:51.764Z,1.00
2022-08-20T06:55:17.495Z,1.00
2022-08-20T06:57:47.343Z,1.00
2022-08-20T07:00:18.250Z,1.00
2022-08-20T07:02:48.034Z,1.00
2022-08-20T07:05:16.621Z,1.00
2022-08-20T07:07:49.403Z,1.00
2022-08-20T07:10:19.604Z,1.00
2022-08-20T07:12:51.028Z,1.00
2022-08-20T07:15:21.008Z,1.00
2022-08-20T07:17:53.527Z,1.00
2022-08-20T07:20:23.596Z,1.00
2022-08-20T07:22:53.129Z,1.00
2022-08-20T07:25:22.514Z,1.00
2022-08-20T07:27:52.039Z,1.00
2022-08-20T07:30:56.767Z,1.00
2022-08-20T07:33:26.271Z,1.00
2022-08-20T07:35:56.485Z,1.00
2022-08-20T07:38:27.858Z,1.00
2022-08-20T07:40:57.529Z,1.00
2022-08-20T07:43:25.951Z,1.00
2022-08-20T07:45:57.181Z,1.00
2022-08-20T07:48:32.053Z,1.00
2022-08-20T07:51:03.602Z,1.00
2022-08-20T07:53:35.838Z,1.00
2022-08-20T07:56:06.421Z,1.00
2022-08-20T07:58:37.135Z,1.00
2022-08-20T08:01:06.165Z,1.00
2022-08-20T08:03:39.951Z,1.00
2022-08-20T08:06:29.046Z,1.00
2022-08-20T08:09:02.949Z,1.00
2022-08-20T08:11:32.350Z,1.00
2022-08-20T08:14:00.667Z,1.00
2022-08-20T08:16:31.032Z,1.00
2022-08-20T08:19:01.263Z,1.00
2022-08-20T08:21:29.961Z,1.00
2022-08-20T08:23:59.719Z,1.00
2022-08-20T08:26:29.045Z,1.00
2022-08-20T08:28:58.027Z,1.00
2022-08-20T08:31:26.655Z,1.00
2022-08-20T08:33:55.244Z,1.00
2022-08-20T08:36:23.397Z,1.00
2022-08-20T08:38:51.435Z,1.00
2022-08-20T08:41:26.069Z,1.00
2022-08-20T08:43:55.905Z,1.00
2022-08-20T08:46:27.386Z,1.00
2022-08-20T08:49:01.516Z,1.00
2022-08-20T08:51:34.909Z,1.00
2022-08-20T08:54:06.909Z,1.00
2022-08-20T08:56:37.352Z,1.00
2022-08-20T08:59:08.773Z,1.00
2022-08-20T09:01:53.839Z,1.00
2022-08-20T09:04:29.101Z,1.00
2022-08-20T09:06:57.417Z,1.00
2022-08-20T09:09:29.045Z,1.00
2022-08-20T09:12:05.327Z,1.00
2022-08-20T09:14:33.925Z,1.00
2022-08-20T09:17:01.994Z,1.00
2022-08-20T09:19:30.094Z,1.00
2022-08-20T09:21:58.323Z,1.00
2022-08-20T09:24:26.539Z,1.00
2022-08-20T09:26:54.589Z,1.00
2022-08-20T09:29:23.983Z,1.00
2022-08-20T09:31:51.834Z,1.00
2022-08-20T09:34:20.616Z,1.00
2022-08-20T09:36:48.616Z,1.00
2022-08-20T09:39:16.650Z,1.00
2022-08-20T09:41:44.730Z,1.00
2022-08-20T09:44:12.785Z,1.00
2022-08-20T09:46:42.192Z,1.00
2022-08-20T09:49:10.385Z,1.00
2022-08-20T09:51:39.292Z,1.00
2022-08-20T09:54:07.689Z,1.00
2022-08-20T09:56:36.704Z,1.00
2022-08-20T09:59:05.054Z,1.00
2022-08-20T10:01:34.276Z,1.00
2022-08-20T10:04:03.944Z,1.00
2022-08-20T10:06:37.151Z,1.00
2022-08-20T10:09:06.008Z,1.00
2022-08-20T10:11:34.256Z,1.00
2022-08-20T10:14:02.285Z,1.00
2022-08-20T10:16:30.340Z,1.00
2022-08-20T10:18:58.782Z,1.00
2022-08-20T10:21:28.191Z,1.00
2022-08-20T10:23:56.037Z,1.00
2022-08-20T10:26:24.066Z,1.00
2022-08-20T10:28:53.272Z,1.00
2022-08-20T10:31:21.525Z,1.00
2022-08-20T10:33:49.598Z,1.00
2022-08-20T10:36:18.940Z,1.00
2022-08-20T10:38:49.039Z,1.00
2022-08-20T10:41:17.297Z,1.00
2022-08-20T10:43:45.309Z,1.00
2022-08-20T10:46:13.683Z,1.00
2022-08-20T10:48:41.825Z,1.00
2022-08-20T10:51:10.091Z,1.00
2022-08-20T10:53:40.639Z,1.00
2022-08-20T10:56:13.741Z,1.00
2022-08-20T10:58:43.666Z,1.00
2022-08-20T11:01:12.766Z,1.00
2022-08-20T11:03:59.733Z,1.00
2022-08-20T11:06:27.747Z,1.00
2022-08-20T11:08:56.905Z,1.00
2022-08-20T11:11:26.384Z,1.00
2022-08-20T11:13:54.407Z,1.00
2022-08-20T11:16:22.839Z,1.00
2022-08-20T11:18:50.950Z,1.00
2022-08-20T11:21:19.247Z,1.00
2022-08-20T11:23:47.313Z,1.00
2022-08-20T11:26:21.671Z,1.00
2022-08-20T11:28:51.192Z,1.00
2022-08-20T11:31:19.264Z,1.00
2022-08-20T11:33:47.304Z,1.00
2022-08-20T11:36:15.322Z,1.00
2022-08-20T11:38:43.712Z,1.00
2022-08-20T11:41:11.748Z,1.00
2022-08-20T11:43:39.963Z,1.00
2022-08-20T11:46:09.419Z,1.00
2022-08-20T11:48:37.344Z,1.00
2022-08-20T11:51:05.715Z,1.00
2022-08-20T11:53:33.820Z,1.00
2022-08-20T11:56:03.897Z,1.00
2022-08-20T11:58:32.728Z,1.00
2022-08-20T12:01:00.868Z,1.00
2022-08-20T12:03:30.975Z,1.00
2022-08-20T12:05:59.011Z,1.00
2022-08-20T12:08:28.224Z,1.00
2022-08-20T12:10:58.170Z,1.00
2022-08-20T12:13:38.863Z,1.00
2022-08-20T12:16:15.310Z,1.00
2022-08-20T12:18:44.740Z,1.00
2022-08-20T12:21:12.889Z,1.00
2022-08-20T12:23:40.975Z,1.00
2022-08-20T12:26:09.110Z,1.00
2022-08-20T12:28:37.232Z,1.00
2022-08-20T12:31:05.392Z,1.00
2022-08-20T12:33:33.475Z,1.00
2022-08-20T12:36:03.060Z,1.00
2022-08-20T12:38:31.094Z,1.00
2022-08-20T12:40:59.199Z,1.00
2022-08-20T12:43:27.324Z,1.00
2022-08-20T12:45:55.413Z,1.00
2022-08-20T12:48:23.485Z,1.00
2022-08-20T12:50:52.661Z,6.40
2022-08-20T12:53:22.176Z,4.60
2022-08-20T12:55:50.247Z,1.00
2022-08-20T12:58:19.264Z,2.70
2022-08-20T13:00:48.687Z,1.00
2022-08-20T13:03:19.576Z,1.00
2022-08-20T13:05:47.623Z,1.00
2022-08-20T13:08:17.581Z,1.00
2022-08-20T13:10:47.526Z,1.00
2022-08-20T13:13:17.476Z,5.20
2022-08-20T13:15:51.389Z,7.90
2022-08-20T13:18:20.828Z,12.50
2022-08-20T13:20:49.179Z,12.00
2022-08-20T13:23:17.754Z,1.70
2022-08-20T13:25:47.416Z,11.10
2022-08-20T13:28:15.486Z,5.20
2022-08-20T13:30:43.512Z,8.00
2022-08-20T13:33:11.591Z,10.80
2022-08-20T13:35:39.737Z,12.10
2022-08-20T13:38:08.177Z,8.90
2022-08-20T13:40:36.303Z,9.70
2022-08-20T13:43:07.442Z,17.00
2022-08-20T13:45:40.700Z,12.90
2022-08-20T13:48:10.110Z,5.60
2022-08-20T13:50:43.293Z,10.30
2022-08-20T13:53:15.408Z,5.20
2022-08-20T13:55:43.505Z,9.80
2022-08-20T13:58:14.216Z,3.80
2022-08-20T14:00:42.565Z,6.20
2022-08-20T14:03:10.633Z,13.40
2022-08-20T14:05:39.406Z,10.10
2022-08-20T14:08:09.605Z,9.50
2022-08-20T14:10:38.667Z,10.70
2022-08-20T14:13:08.374Z,7.60
2022-08-20T14:15:39.416Z,6.30
2022-08-20T14:18:07.450Z,6.50
2022-08-20T14:20:35.943Z,8.60
2022-08-20T14:23:07.067Z,9.30
2022-08-20T14:25:35.446Z,8.20
2022-08-20T14:28:11.813Z,8.10
2022-08-20T14:30:41.625Z,12.40
2022-08-20T14:33:10.403Z,9.40
2022-08-20T14:35:38.975Z,7.70
2022-08-20T14:38:07.756Z,8.80
2022-08-20T14:40:36.700Z,6.90
2022-08-20T14:43:05.041Z,8.30
2022-08-20T14:45:33.292Z,11.80
2022-08-20T14:48:02.745Z,18.80
2022-08-20T14:50:31.597Z,9.90
2022-08-20T14:52:59.808Z,10.00
2022-08-20T14:55:34.001Z,12.00
2022-08-20T14:58:02.111Z,15.40
2022-08-20T15:00:33.880Z,19.10
2022-08-20T15:03:03.344Z,15.20
2022-08-20T15:05:31.435Z,15.30
2022-08-20T15:07:59.606Z,23.30
2022-08-20T15:10:30.701Z,11.70
2022-08-20T15:12:59.525Z,14.60
2022-08-20T15:15:28.168Z,19.40
2022-08-20T15:18:00.026Z,20.80
2022-08-20T15:20:31.338Z,23.80
2022-08-20T15:23:00.301Z,29.20
2022-08-20T15:25:36.146Z,29.50
2022-08-20T15:28:08.181Z,28.20
2022-08-20T15:30:37.499Z,33.40
2022-08-20T15:33:05.799Z,35.70
2022-08-20T15:35:35.535Z,32.50
2022-08-20T15:38:03.646Z,32.60
2022-08-20T15:40:33.556Z,30.00
2022-08-20T15:43:03.889Z,28.90
2022-08-20T15:45:32.031Z,31.70
2022-08-20T15:48:07.639Z,32.60
2022-08-20T15:50:55.124Z,33.30
2022-08-20T15:53:28.936Z,31.40
2022-08-20T15:56:05.233Z,31.70
2022-08-20T15:58:39.509Z,37.10
2022-08-20T16:01:25.241Z,35.10
2022-08-20T16:04:26.305Z,40.70
2022-08-20T16:07:01.484Z,42.10
2022-08-20T16:09:44.946Z,44.80
2022-08-20T16:12:18.407Z,44.20
2022-08-20T16:14:50.512Z,44.30
2022-08-20T16:17:25.904Z,43.80
2022-08-20T16:20:02.070Z,46.30
2022-08-20T16:22:32.789Z,48.50
2022-08-20T16:25:00.899Z,44.00
2022-08-20T16:27:36.545Z,42.20
2022-08-20T16:30:09.374Z,44.20
2022-08-20T16:32:43.380Z,42.30
2022-08-20T16:35:33.991Z,44.00
2022-08-20T16:38:20.936Z,49.60
2022-08-20T16:40:55.162Z,46.00
2022-08-20T16:43:27.233Z,46.10
2022-08-20T16:46:01.269Z,48.70
2022-08-20T16:48:36.476Z,52.10
2022-08-20T16:51:08.203Z,45.50
2022-08-20T16:53:37.668Z,49.50
2022-08-20T16:56:06.360Z,48.10
2022-08-20T16:58:34.527Z,48.90
2022-08-20T17:01:08.467Z,44.80
2022-08-20T17:03:40.543Z,47.60
2022-08-20T17:06:19.346Z,49.70
2022-08-20T17:08:51.223Z,51.10
2022-08-20T17:11:26.358Z,52.10
2022-08-20T17:14:05.588Z,51.80
2022-08-20T17:16:35.791Z,57.30
2022-08-20T17:19:14.740Z,54.80
2022-08-20T17:21:43.904Z,61.80
2022-08-20T17:24:23.361Z,64.20
2022-08-20T17:26:54.017Z,68.90
2022-08-20T17:29:24.601Z,66.40
2022-08-20T17:31:54.977Z,63.50
2022-08-20T17:34:24.645Z,66.60
2022-08-20T17:36:57.885Z,69.90
2022-08-20T17:39:29.212Z,73.80
2022-08-20T17:42:08.115Z,71.20
2022-08-20T17:44:40.317Z,74.00
2022-08-20T17:47:14.877Z,72.50
2022-08-20T17:50:00.494Z,80.00
2022-08-20T17:52:35.251Z,77.80
2022-08-20T17:55:05.564Z,81.10
2022-08-20T17:57:38.780Z,80.20
2022-08-20T18:00:13.981Z,79.60
2022-08-20T18:02:42.427Z,83.10
2022-08-20T18:05:16.893Z,81.80
2022-08-20T18:07:58.772Z,80.00
2022-08-20T18:10:28.686Z,83.90
2022-08-20T18:13:01.912Z,82.30
2022-08-20T18:15:34.817Z,86.80
2022-08-20T18:18:26.706Z,87.20
2022-08-20T18:21:15.255Z,90.10
2022-08-20T18:23:47.970Z,90.10
2022-08-20T18:26:22.501Z,90.30
2022-08-20T18:28:54.891Z,89.60
2022-08-20T18:31:27.938Z,90.50
2022-08-20T18:33:56.453Z,89.60
2022-08-20T18:36:28.144Z,90.50
2022-08-20T18:39:03.391Z,91.60
2022-08-20T18:41:35.221Z,90.90
2022-08-20T18:44:10.893Z,91.30
2022-08-20T18:46:50.977Z,91.00
2022-08-20T18:49:28.725Z,89.30
2022-08-20T18:51:58.160Z,88.90
2022-08-20T18:54:29.276Z,89.00
2022-08-20T18:57:07.851Z,91.10
2022-08-20T18:59:41.631Z,91.90
2022-08-20T19:02:22.111Z,91.70
2022-08-20T19:05:02.259Z,92.00
2022-08-20T19:07:45.789Z,90.70
2022-08-20T19:10:40.260Z,91.10
2022-08-20T19:13:41.452Z,91.00
2022-08-20T19:16:15.784Z,91.60
2022-08-20T19:18:50.445Z,90.30
2022-08-20T19:21:23.019Z,90.50
2022-08-20T19:23:55.026Z,91.50
2022-08-20T19:26:26.220Z,91.20
2022-08-20T19:28:59.876Z,91.60
2022-08-20T19:31:31.162Z,91.50
2022-08-20T19:34:19.558Z,92.60
2022-08-20T19:36:55.414Z,92.90
2022-08-20T19:39:25.888Z,91.90
2022-08-20T19:41:57.703Z,91.70
2022-08-20T19:44:33.787Z,91.30
2022-08-20T19:47:03.405Z,91.80
2022-08-20T19:49:42.723Z,91.60
2022-08-20T19:52:35.314Z,91.80
2022-08-20T19:55:04.236Z,92.20
2022-08-20T19:57:32.808Z,91.30
2022-08-20T20:00:07.836Z,92.20
2022-08-20T20:02:36.438Z,93.80
2022-08-20T20:05:06.577Z,92.70
2022-08-20T20:07:39.381Z,92.00
2022-08-20T20:10:10.848Z,92.70
2022-08-20T20:12:40.595Z,91.20
2022-08-20T20:15:10.608Z,92.70
2022-08-20T20:17:39.480Z,91.60
2022-08-20T20:20:21.177Z,92.00
2022-08-20T20:22:53.314Z,91.10
2022-08-20T20:25:24.433Z,92.20
2022-08-20T20:27:54.618Z,90.80
2022-08-20T20:30:29.234Z,90.10
2022-08-20T20:32:59.229Z,90.10
2022-08-20T20:35:30.711Z,90.90
2022-08-20T20:38:01.289Z,92.00
2022-08-20T20:40:33.986Z,90.30
2022-08-20T20:43:06.702Z,91.70
2022-08-20T20:45:40.117Z,91.60
2022-08-20T20:48:20.576Z,92.00
2022-08-20T20:50:49.577Z,93.70
2022-08-20T20:53:47.457Z,92.90
2022-08-20T20:56:32.094Z,91.90
2022-08-20T20:59:05.833Z,92.90
2022-08-20T21:01:49.642Z,92.30
2022-08-20T21:04:19.744Z,92.70
2022-08-20T21:06:47.812Z,94.00
2022-08-20T21:09:16.603Z,94.30
2022-08-20T21:11:44.653Z,94.60
2022-08-20T21:14:12.737Z,95.00
2022-08-20T21:16:42.565Z,94.30
2022-08-20T21:19:12.001Z,94.60
2022-08-20T21:21:41.084Z,94.70
2022-08-20T21:24:09.454Z,94.80
2022-08-20T21:26:38.640Z,95.30
2022-08-20T21:29:07.612Z,96.00
2022-08-20T21:31:39.680Z,94.80
2022-08-20T21:34:14.231Z,96.20
2022-08-20T21:36:42.273Z,96.00
2022-08-20T21:39:10.604Z,95.40
2022-08-20T21:41:39.056Z,96.50
2022-08-20T21:44:14.911Z,96.20
2022-08-20T21:46:43.463Z,96.40
2022-08-20T21:49:12.897Z,96.90
2022-08-20T21:51:40.812Z,97.00
2022-08-20T21:54:08.848Z,98.20
2022-08-20T21:56:37.662Z,96.30
2022-08-20T21:59:08.219Z,97.60
2022-08-20T22:01:36.890Z,97.40
2022-08-20T22:04:06.503Z,97.90
2022-08-20T22:06:35.749Z,99.00
2022-08-20T22:09:03.848Z,98.90
2022-08-20T22:11:33.319Z,98.50
2022-08-20T22:14:01.847Z,99.00
2022-08-20T22:16:30.241Z,99.60
2022-08-20T22:18:58.513Z,98.40
2022-08-20T22:21:28.956Z,98.20
2022-08-20T22:24:03.345Z,99.10
2022-08-20T22:26:33.245Z,99.80
2022-08-20T22:29:01.831Z,98.90
2022-08-20T22:31:32.381Z,99.60
2022-08-20T22:34:00.669Z,99.00
2022-08-20T22:36:29.343Z,99.70
2022-08-20T22:38:57.437Z,99.90
2022-08-20T22:41:27.535Z,99.60
2022-08-20T22:43:57.114Z,99.50
2022-08-20T22:46:27.124Z,99.90
2022-08-20T22:48:55.665Z,99.90
2022-08-20T22:51:28.823Z,99.40
2022-08-20T22:53:58.773Z,99.90
2022-08-20T22:56:29.899Z,99.90
2022-08-20T22:58:59.416Z,99.90
2022-08-20T23:01:28.018Z,99.90
2022-08-20T23:03:58.348Z,99.90
2022-08-20T23:06:27.912Z,99.90
2022-08-20T23:08:55.805Z,99.90
2022-08-20T23:11:23.838Z,99.90
2022-08-20T23:13:53.318Z,99.90
2022-08-20T23:16:21.197Z,99.90
2022-08-20T23:18:49.725Z,99.90
2022-08-20T23:21:17.870Z,99.90
2022-08-20T23:23:45.936Z,99.90
2022-08-20T23:26:19.989Z,99.90
2022-08-20T23:28:48.093Z,99.90
2022-08-20T23:31:17.563Z,99.90
2022-08-20T23:33:45.467Z,99.90
2022-08-20T23:36:16.187Z,99.90
2022-08-20T23:38:44.259Z,99.90
2022-08-20T23:41:12.367Z,99.90
2022-08-20T23:43:40.454Z,99.90
2022-08-20T23:46:10.013Z,99.90
2022-08-20T23:48:39.261Z,99.90
2022-08-20T23:51:07.484Z,99.90
2022-08-20T23:53:36.092Z,99.90
2022-08-20T23:56:04.715Z,99.90
2022-08-20T23:58:32.796Z,99.90
